sensor_id;sensor_type;location;lat;lon;timestamp;temperature;humidity
15844;DHT22;50807;52.436;13.346;2024-03-07T00:00:03;12.20;93.50
15844;DHT22;50807;52.436;13.346;2024-03-07T00:00:44;12.20;93.60
15844;DHT22;50807;52.436;13.346;2024-03-07T00:01:16;12.20;93.60
15844;DHT22;50807;52.436;13.346;2024-03-07T00:01:47;12.20;93.60
15844;DHT22;50807;52.436;13.346;2024-03-07T00:02:19;12.20;93.70
15844;DHT22;50807;52.436;13.346;2024-03-07T00:02:51;12.20;93.70
15844;DHT22;50807;52.436;13.346;2024-03-07T00:03:22;12.20;93.80
15844;DHT22;50807;52.436;13.346;2024-03-07T00:03:54;12.20;93.80
15844;DHT22;50807;52.436;13.346;2024-03-07T00:04:26;12.20;93.90
15844;DHT22;50807;52.436;13.346;2024-03-07T00:04:57;12.20;93.90
15844;DHT22;50807;52.436;13.346;2024-03-07T00:05:27;12.20;94.00
15844;DHT22;50807;52.436;13.346;2024-03-07T00:05:58;12.20;94.00
15844;DHT22;50807;52.436;13.346;2024-03-07T00:06:31;12.20;94.10
15844;DHT22;50807;52.436;13.346;2024-03-07T00:07:02;12.20;94.10
15844;DHT22;50807;52.436;13.346;2024-03-07T00:07:36;12.20;94.20
15844;DHT22;50807;52.436;13.346;2024-03-07T00:08:07;12.20;94.30
15844;DHT22;50807;52.436;13.346;2024-03-07T00:08:40;12.20;94.20
15844;DHT22;50807;52.436;13.346;2024-03-07T00:09:11;12.20;94.30
15844;DHT22;50807;52.436;13.346;2024-03-07T00:09:42;12.20;94.30
15844;DHT22;50807;52.436;13.346;2024-03-07T00:10:13;12.20;94.30
15844;DHT22;50807;52.436;13.346;2024-03-07T00:10:45;12.20;94.30
15844;DHT22;50807;52.436;13.346;2024-03-07T00:11:16;12.20;94.40
15844;DHT22;50807;52.436;13.346;2024-03-07T00:11:47;12.20;94.40
15844;DHT22;50807;52.436;13.346;2024-03-07T00:12:18;12.20;94.40
15844;DHT22;50807;52.436;13.346;2024-03-07T00:12:50;12.20;94.40
15844;DHT22;50807;52.436;13.346;2024-03-07T00:13:21;12.20;94.50
15844;DHT22;50807;52.436;13.346;2024-03-07T00:13:52;12.30;94.50
15844;DHT22;50807;52.436;13.346;2024-03-07T00:14:22;12.30;94.50
15844;DHT22;50807;52.436;13.346;2024-03-07T00:14:57;12.30;94.60
15844;DHT22;50807;52.436;13.346;2024-03-07T00:15:28;12.30;94.50
15844;DHT22;50807;52.436;13.346;2024-03-07T00:16:00;12.30;94.50
15844;DHT22;50807;52.436;13.346;2024-03-07T00:16:32;12.30;94.50
15844;DHT22;50807;52.436;13.346;2024-03-07T00:17:04;12.30;94.50
15844;DHT22;50807;52.436;13.346;2024-03-07T00:17:34;12.30;94.60
15844;DHT22;50807;52.436;13.346;2024-03-07T00:18:05;12.30;94.60
15844;DHT22;50807;52.436;13.346;2024-03-07T00:18:37;12.20;94.60
15844;DHT22;50807;52.436;13.346;2024-03-07T00:19:09;12.20;94.60
15844;DHT22;50807;52.436;13.346;2024-03-07T00:19:39;12.30;94.60
15844;DHT22;50807;52.436;13.346;2024-03-07T00:20:10;12.20;94.60
15844;DHT22;50807;52.436;13.346;2024-03-07T00:20:45;12.30;94.70
15844;DHT22;50807;52.436;13.346;2024-03-07T00:21:16;12.20;94.60
15844;DHT22;50807;52.436;13.346;2024-03-07T00:21:47;12.20;94.60
15844;DHT22;50807;52.436;13.346;2024-03-07T00:22:17;12.20;94.70
15844;DHT22;50807;52.436;13.346;2024-03-07T00:22:50;12.20;94.70
15844;DHT22;50807;52.436;13.346;2024-03-07T00:23:21;12.20;94.80
15844;DHT22;50807;52.436;13.346;2024-03-07T00:23:52;12.20;94.80
15844;DHT22;50807;52.436;13.346;2024-03-07T00:24:24;12.20;94.80
15844;DHT22;50807;52.436;13.346;2024-03-07T00:24:57;12.20;94.90
15844;DHT22;50807;52.436;13.346;2024-03-07T00:25:29;12.20;94.90
15844;DHT22;50807;52.436;13.346;2024-03-07T00:26:01;12.20;94.90
15844;DHT22;50807;52.436;13.346;2024-03-07T00:26:33;12.20;95.00
15844;DHT22;50807;52.436;13.346;2024-03-07T00:27:04;12.20;95.00
15844;DHT22;50807;52.436;13.346;2024-03-07T00:27:35;12.20;95.10
15844;DHT22;50807;52.436;13.346;2024-03-07T00:28:06;12.20;95.10
15844;DHT22;50807;52.436;13.346;2024-03-07T00:28:37;12.20;95.20
15844;DHT22;50807;52.436;13.346;2024-03-07T00:29:09;12.20;95.20
15844;DHT22;50807;52.436;13.346;2024-03-07T00:29:41;12.20;95.30
15844;DHT22;50807;52.436;13.346;2024-03-07T00:30:11;12.20;95.30
15844;DHT22;50807;52.436;13.346;2024-03-07T00:30:44;12.20;95.30
15844;DHT22;50807;52.436;13.346;2024-03-07T00:31:16;12.20;95.30
15844;DHT22;50807;52.436;13.346;2024-03-07T00:31:47;12.20;95.30
15844;DHT22;50807;52.436;13.346;2024-03-07T00:32:18;12.20;95.40
15844;DHT22;50807;52.436;13.346;2024-03-07T00:32:49;12.20;95.40
15844;DHT22;50807;52.436;13.346;2024-03-07T00:33:21;12.20;95.40
15844;DHT22;50807;52.436;13.346;2024-03-07T00:33:52;12.20;95.50
15844;DHT22;50807;52.436;13.346;2024-03-07T00:34:23;12.20;95.50
15844;DHT22;50807;52.436;13.346;2024-03-07T00:34:53;12.20;95.60
15844;DHT22;50807;52.436;13.346;2024-03-07T00:35:25;12.20;95.60
15844;DHT22;50807;52.436;13.346;2024-03-07T00:35:56;12.20;95.60
15844;DHT22;50807;52.436;13.346;2024-03-07T00:36:27;12.20;95.70
15844;DHT22;50807;52.436;13.346;2024-03-07T00:36:57;12.20;95.70
15844;DHT22;50807;52.436;13.346;2024-03-07T00:37:29;12.20;95.70
15844;DHT22;50807;52.436;13.346;2024-03-07T00:38:02;12.20;95.70
15844;DHT22;50807;52.436;13.346;2024-03-07T00:38:34;12.20;95.80
15844;DHT22;50807;52.436;13.346;2024-03-07T00:39:04;12.20;95.70
15844;DHT22;50807;52.436;13.346;2024-03-07T00:39:38;12.20;95.80
15844;DHT22;50807;52.436;13.346;2024-03-07T00:40:10;12.20;95.80
15844;DHT22;50807;52.436;13.346;2024-03-07T00:40:41;12.20;95.80
15844;DHT22;50807;52.436;13.346;2024-03-07T00:41:12;12.20;95.80
15844;DHT22;50807;52.436;13.346;2024-03-07T00:41:42;12.20;95.90
15844;DHT22;50807;52.436;13.346;2024-03-07T00:42:14;12.20;95.90
15844;DHT22;50807;52.436;13.346;2024-03-07T00:42:45;12.10;95.90
15844;DHT22;50807;52.436;13.346;2024-03-07T00:43:15;12.10;95.90
15844;DHT22;50807;52.436;13.346;2024-03-07T00:43:47;12.10;95.90
15844;DHT22;50807;52.436;13.346;2024-03-07T00:44:18;12.10;95.90
15844;DHT22;50807;52.436;13.346;2024-03-07T00:44:49;12.10;96.00
15844;DHT22;50807;52.436;13.346;2024-03-07T00:45:20;12.10;96.00
15844;DHT22;50807;52.436;13.346;2024-03-07T00:45:51;12.10;96.00
15844;DHT22;50807;52.436;13.346;2024-03-07T00:46:22;12.10;96.00
15844;DHT22;50807;52.436;13.346;2024-03-07T00:46:53;12.10;96.10
15844;DHT22;50807;52.436;13.346;2024-03-07T00:47:24;12.10;96.10
15844;DHT22;50807;52.436;13.346;2024-03-07T00:47:54;12.10;96.10
15844;DHT22;50807;52.436;13.346;2024-03-07T00:48:26;12.10;96.20
15844;DHT22;50807;52.436;13.346;2024-03-07T00:48:57;12.10;96.20
15844;DHT22;50807;52.436;13.346;2024-03-07T00:49:28;12.10;96.20
15844;DHT22;50807;52.436;13.346;2024-03-07T00:49:59;12.10;96.20
15844;DHT22;50807;52.436;13.346;2024-03-07T00:50:30;12.10;96.30
15844;DHT22;50807;52.436;13.346;2024-03-07T00:51:03;12.10;96.30
15844;DHT22;50807;52.436;13.346;2024-03-07T00:51:34;12.10;96.30
15844;DHT22;50807;52.436;13.346;2024-03-07T00:52:05;12.10;96.30
15844;DHT22;50807;52.436;13.346;2024-03-07T00:52:36;12.10;96.30
15844;DHT22;50807;52.436;13.346;2024-03-07T00:53:10;12.10;96.40
15844;DHT22;50807;52.436;13.346;2024-03-07T00:53:41;12.10;96.40
15844;DHT22;50807;52.436;13.346;2024-03-07T00:54:12;12.10;96.40
15844;DHT22;50807;52.436;13.346;2024-03-07T00:54:43;12.10;96.40
15844;DHT22;50807;52.436;13.346;2024-03-07T00:55:15;12.10;96.40
15844;DHT22;50807;52.436;13.346;2024-03-07T00:55:45;12.10;96.40
15844;DHT22;50807;52.436;13.346;2024-03-07T00:56:16;12.10;96.50
15844;DHT22;50807;52.436;13.346;2024-03-07T00:56:47;12.10;96.50
15844;DHT22;50807;52.436;13.346;2024-03-07T00:57:19;12.10;96.50
15844;DHT22;50807;52.436;13.346;2024-03-07T00:57:51;12.10;96.50
15844;DHT22;50807;52.436;13.346;2024-03-07T00:58:21;12.10;96.50
15844;DHT22;50807;52.436;13.346;2024-03-07T00:58:52;12.10;96.50
15844;DHT22;50807;52.436;13.346;2024-03-07T00:59:23;12.10;96.60
15844;DHT22;50807;52.436;13.346;2024-03-07T00:59:54;12.10;96.60
15844;DHT22;50807;52.436;13.346;2024-03-07T01:00:26;12.10;96.60
15844;DHT22;50807;52.436;13.346;2024-03-07T01:00:58;12.10;96.60
15844;DHT22;50807;52.436;13.346;2024-03-07T01:01:29;12.10;96.60
15844;DHT22;50807;52.436;13.346;2024-03-07T01:02:01;12.10;96.60
15844;DHT22;50807;52.436;13.346;2024-03-07T01:02:33;12.10;96.60
15844;DHT22;50807;52.436;13.346;2024-03-07T01:03:04;12.10;96.60
15844;DHT22;50807;52.436;13.346;2024-03-07T01:03:36;12.10;96.60
15844;DHT22;50807;52.436;13.346;2024-03-07T01:04:07;12.10;96.70
15844;DHT22;50807;52.436;13.346;2024-03-07T01:04:39;12.10;96.70
15844;DHT22;50807;52.436;13.346;2024-03-07T01:05:10;12.10;96.70
15844;DHT22;50807;52.436;13.346;2024-03-07T01:05:43;12.10;96.70
15844;DHT22;50807;52.436;13.346;2024-03-07T01:06:14;12.10;96.80
15844;DHT22;50807;52.436;13.346;2024-03-07T01:06:46;12.10;96.80
15844;DHT22;50807;52.436;13.346;2024-03-07T01:07:17;12.10;96.80
15844;DHT22;50807;52.436;13.346;2024-03-07T01:07:48;12.10;96.80
15844;DHT22;50807;52.436;13.346;2024-03-07T01:08:21;12.10;96.80
15844;DHT22;50807;52.436;13.346;2024-03-07T01:08:51;12.00;96.80
15844;DHT22;50807;52.436;13.346;2024-03-07T01:09:22;12.00;96.80
15844;DHT22;50807;52.436;13.346;2024-03-07T01:09:53;12.00;96.80
15844;DHT22;50807;52.436;13.346;2024-03-07T01:10:25;12.00;96.90
15844;DHT22;50807;52.436;13.346;2024-03-07T01:10:56;12.00;96.90
15844;DHT22;50807;52.436;13.346;2024-03-07T01:11:26;12.00;96.90
15844;DHT22;50807;52.436;13.346;2024-03-07T01:11:57;12.00;97.00
15844;DHT22;50807;52.436;13.346;2024-03-07T01:12:30;12.00;97.00
15844;DHT22;50807;52.436;13.346;2024-03-07T01:13:01;12.00;97.00
15844;DHT22;50807;52.436;13.346;2024-03-07T01:13:32;12.00;97.00
15844;DHT22;50807;52.436;13.346;2024-03-07T01:14:03;12.00;97.00
15844;DHT22;50807;52.436;13.346;2024-03-07T01:14:34;12.00;97.00
15844;DHT22;50807;52.436;13.346;2024-03-07T01:15:06;12.00;97.10
15844;DHT22;50807;52.436;13.346;2024-03-07T01:15:39;12.00;97.10
15844;DHT22;50807;52.436;13.346;2024-03-07T01:16:10;12.00;97.10
15844;DHT22;50807;52.436;13.346;2024-03-07T01:16:42;12.00;97.10
15844;DHT22;50807;52.436;13.346;2024-03-07T01:17:12;12.00;97.10
15844;DHT22;50807;52.436;13.346;2024-03-07T01:17:43;12.00;97.20
15844;DHT22;50807;52.436;13.346;2024-03-07T01:18:15;12.00;97.20
15844;DHT22;50807;52.436;13.346;2024-03-07T01:18:47;12.00;97.20
15844;DHT22;50807;52.436;13.346;2024-03-07T01:19:19;12.00;97.20
15844;DHT22;50807;52.436;13.346;2024-03-07T01:19:50;12.00;97.20
15844;DHT22;50807;52.436;13.346;2024-03-07T01:20:21;12.00;97.30
15844;DHT22;50807;52.436;13.346;2024-03-07T01:20:55;12.00;97.30
15844;DHT22;50807;52.436;13.346;2024-03-07T01:21:26;12.00;97.30
15844;DHT22;50807;52.436;13.346;2024-03-07T01:21:57;12.00;97.30
15844;DHT22;50807;52.436;13.346;2024-03-07T01:22:28;12.00;97.30
15844;DHT22;50807;52.436;13.346;2024-03-07T01:22:59;12.00;97.30
15844;DHT22;50807;52.436;13.346;2024-03-07T01:23:31;12.00;97.40
15844;DHT22;50807;52.436;13.346;2024-03-07T01:24:02;12.00;97.40
15844;DHT22;50807;52.436;13.346;2024-03-07T01:24:35;12.00;97.40
15844;DHT22;50807;52.436;13.346;2024-03-07T01:25:06;12.00;97.40
15844;DHT22;50807;52.436;13.346;2024-03-07T01:25:37;12.00;97.40
15844;DHT22;50807;52.436;13.346;2024-03-07T01:26:07;12.00;97.70
15844;DHT22;50807;52.436;13.346;2024-03-07T01:26:39;12.00;97.40
15844;DHT22;50807;52.436;13.346;2024-03-07T01:27:10;12.00;97.40
15844;DHT22;50807;52.436;13.346;2024-03-07T01:27:41;11.90;97.40
15844;DHT22;50807;52.436;13.346;2024-03-07T01:28:12;11.90;97.40
15844;DHT22;50807;52.436;13.346;2024-03-07T01:28:44;11.90;97.30
15844;DHT22;50807;52.436;13.346;2024-03-07T01:29:15;11.90;97.30
15844;DHT22;50807;52.436;13.346;2024-03-07T01:29:46;11.90;97.30
15844;DHT22;50807;52.436;13.346;2024-03-07T01:30:18;11.90;97.40
15844;DHT22;50807;52.436;13.346;2024-03-07T01:30:49;11.90;97.30
15844;DHT22;50807;52.436;13.346;2024-03-07T01:31:20;11.90;97.30
15844;DHT22;50807;52.436;13.346;2024-03-07T01:31:51;11.90;97.40
15844;DHT22;50807;52.436;13.346;2024-03-07T01:32:23;11.90;97.40
15844;DHT22;50807;52.436;13.346;2024-03-07T01:32:53;11.90;97.40
15844;DHT22;50807;52.436;13.346;2024-03-07T01:33:24;11.90;97.40
15844;DHT22;50807;52.436;13.346;2024-03-07T01:33:55;11.90;97.40
15844;DHT22;50807;52.436;13.346;2024-03-07T01:34:27;11.90;97.40
15844;DHT22;50807;52.436;13.346;2024-03-07T01:34:58;11.90;97.50
15844;DHT22;50807;52.436;13.346;2024-03-07T01:35:28;11.90;97.40
15844;DHT22;50807;52.436;13.346;2024-03-07T01:35:59;11.90;97.50
15844;DHT22;50807;52.436;13.346;2024-03-07T01:36:31;11.80;97.40
15844;DHT22;50807;52.436;13.346;2024-03-07T01:37:02;11.80;97.40
15844;DHT22;50807;52.436;13.346;2024-03-07T01:37:33;11.80;97.40
15844;DHT22;50807;52.436;13.346;2024-03-07T01:38:03;11.80;97.40
15844;DHT22;50807;52.436;13.346;2024-03-07T01:38:37;11.80;97.40
15844;DHT22;50807;52.436;13.346;2024-03-07T01:39:07;11.80;97.50
15844;DHT22;50807;52.436;13.346;2024-03-07T01:39:38;11.80;97.40
15844;DHT22;50807;52.436;13.346;2024-03-07T01:40:10;11.80;97.40
15844;DHT22;50807;52.436;13.346;2024-03-07T01:40:42;11.80;97.40
15844;DHT22;50807;52.436;13.346;2024-03-07T01:41:13;11.70;97.40
15844;DHT22;50807;52.436;13.346;2024-03-07T01:41:44;11.70;97.30
15844;DHT22;50807;52.436;13.346;2024-03-07T01:42:15;11.70;97.30
15844;DHT22;50807;52.436;13.346;2024-03-07T01:42:48;11.70;97.30
15844;DHT22;50807;52.436;13.346;2024-03-07T01:43:20;11.70;97.30
15844;DHT22;50807;52.436;13.346;2024-03-07T01:43:51;11.70;97.30
15844;DHT22;50807;52.436;13.346;2024-03-07T01:44:23;11.70;97.30
15844;DHT22;50807;52.436;13.346;2024-03-07T01:44:54;11.70;97.30
15844;DHT22;50807;52.436;13.346;2024-03-07T01:45:24;11.70;97.40
15844;DHT22;50807;52.436;13.346;2024-03-07T01:45:56;11.70;97.40
15844;DHT22;50807;52.436;13.346;2024-03-07T01:46:29;11.60;97.40
15844;DHT22;50807;52.436;13.346;2024-03-07T01:47:01;11.70;97.50
15844;DHT22;50807;52.436;13.346;2024-03-07T01:47:33;11.60;97.40
15844;DHT22;50807;52.436;13.346;2024-03-07T01:48:05;11.60;97.50
15844;DHT22;50807;52.436;13.346;2024-03-07T01:48:38;11.60;97.50
15844;DHT22;50807;52.436;13.346;2024-03-07T01:49:10;11.60;97.50
15844;DHT22;50807;52.436;13.346;2024-03-07T01:49:41;11.60;97.50
15844;DHT22;50807;52.436;13.346;2024-03-07T01:50:12;11.60;97.60
15844;DHT22;50807;52.436;13.346;2024-03-07T01:50:43;11.60;97.60
15844;DHT22;50807;52.436;13.346;2024-03-07T01:51:16;11.50;97.70
15844;DHT22;50807;52.436;13.346;2024-03-07T01:51:47;11.50;97.70
15844;DHT22;50807;52.436;13.346;2024-03-07T01:52:18;11.50;97.70
15844;DHT22;50807;52.436;13.346;2024-03-07T01:52:50;11.50;97.80
15844;DHT22;50807;52.436;13.346;2024-03-07T01:53:22;11.50;97.90
15844;DHT22;50807;52.436;13.346;2024-03-07T01:53:55;11.50;97.90
15844;DHT22;50807;52.436;13.346;2024-03-07T01:54:26;11.50;98.00
15844;DHT22;50807;52.436;13.346;2024-03-07T01:54:59;11.50;98.00
15844;DHT22;50807;52.436;13.346;2024-03-07T01:55:31;11.50;98.10
15844;DHT22;50807;52.436;13.346;2024-03-07T01:56:03;11.50;98.10
15844;DHT22;50807;52.436;13.346;2024-03-07T01:56:36;11.50;98.10
15844;DHT22;50807;52.436;13.346;2024-03-07T01:57:07;11.50;98.20
15844;DHT22;50807;52.436;13.346;2024-03-07T01:57:39;11.50;98.20
15844;DHT22;50807;52.436;13.346;2024-03-07T01:58:12;11.50;98.20
15844;DHT22;50807;52.436;13.346;2024-03-07T01:58:49;11.50;98.30
15844;DHT22;50807;52.436;13.346;2024-03-07T01:59:22;11.50;98.30
15844;DHT22;50807;52.436;13.346;2024-03-07T01:59:54;11.50;98.30
15844;DHT22;50807;52.436;13.346;2024-03-07T02:00:25;11.50;98.30
15844;DHT22;50807;52.436;13.346;2024-03-07T02:00:57;11.50;98.30
15844;DHT22;50807;52.436;13.346;2024-03-07T02:01:28;11.50;98.30
15844;DHT22;50807;52.436;13.346;2024-03-07T02:01:59;11.50;98.30
15844;DHT22;50807;52.436;13.346;2024-03-07T02:02:32;11.50;98.30
15844;DHT22;50807;52.436;13.346;2024-03-07T02:03:04;11.50;98.30
15844;DHT22;50807;52.436;13.346;2024-03-07T02:03:37;11.50;98.30
15844;DHT22;50807;52.436;13.346;2024-03-07T02:04:08;11.50;98.30
15844;DHT22;50807;52.436;13.346;2024-03-07T02:04:39;11.50;98.30
15844;DHT22;50807;52.436;13.346;2024-03-07T02:05:10;11.50;98.30
15844;DHT22;50807;52.436;13.346;2024-03-07T02:05:41;11.50;98.30
15844;DHT22;50807;52.436;13.346;2024-03-07T02:06:12;11.50;98.30
15844;DHT22;50807;52.436;13.346;2024-03-07T02:06:43;11.50;98.30
15844;DHT22;50807;52.436;13.346;2024-03-07T02:07:15;11.50;98.30
15844;DHT22;50807;52.436;13.346;2024-03-07T02:07:46;11.50;98.30
15844;DHT22;50807;52.436;13.346;2024-03-07T02:08:17;11.50;98.30
15844;DHT22;50807;52.436;13.346;2024-03-07T02:08:49;11.50;98.30
15844;DHT22;50807;52.436;13.346;2024-03-07T02:09:23;11.50;98.20
15844;DHT22;50807;52.436;13.346;2024-03-07T02:09:59;11.50;98.20
15844;DHT22;50807;52.436;13.346;2024-03-07T02:10:30;11.50;98.20
15844;DHT22;50807;52.436;13.346;2024-03-07T02:11:01;11.50;98.10
15844;DHT22;50807;52.436;13.346;2024-03-07T02:11:33;11.50;98.00
15844;DHT22;50807;52.436;13.346;2024-03-07T02:12:03;11.50;98.30
15844;DHT22;50807;52.436;13.346;2024-03-07T02:12:35;11.50;98.00
15844;DHT22;50807;52.436;13.346;2024-03-07T02:13:06;11.40;97.90
15844;DHT22;50807;52.436;13.346;2024-03-07T02:13:38;11.40;97.90
15844;DHT22;50807;52.436;13.346;2024-03-07T02:14:08;11.40;97.90
15844;DHT22;50807;52.436;13.346;2024-03-07T02:14:39;11.40;97.90
15844;DHT22;50807;52.436;13.346;2024-03-07T02:15:10;11.40;97.90
15844;DHT22;50807;52.436;13.346;2024-03-07T02:15:44;11.40;98.00
15844;DHT22;50807;52.436;13.346;2024-03-07T02:16:15;11.40;98.00
15844;DHT22;50807;52.436;13.346;2024-03-07T02:16:45;11.40;98.00
15844;DHT22;50807;52.436;13.346;2024-03-07T02:17:16;11.40;98.10
15844;DHT22;50807;52.436;13.346;2024-03-07T02:17:48;11.40;98.10
15844;DHT22;50807;52.436;13.346;2024-03-07T02:18:20;11.40;98.20
15844;DHT22;50807;52.436;13.346;2024-03-07T02:18:51;11.40;98.20
15844;DHT22;50807;52.436;13.346;2024-03-07T02:19:21;11.40;98.20
15844;DHT22;50807;52.436;13.346;2024-03-07T02:19:53;11.40;98.30
15844;DHT22;50807;52.436;13.346;2024-03-07T02:20:24;11.40;98.30
15844;DHT22;50807;52.436;13.346;2024-03-07T02:20:56;11.40;98.30
15844;DHT22;50807;52.436;13.346;2024-03-07T02:21:27;11.40;98.30
15844;DHT22;50807;52.436;13.346;2024-03-07T02:21:59;11.40;98.30
15844;DHT22;50807;52.436;13.346;2024-03-07T02:22:30;11.40;98.30
15844;DHT22;50807;52.436;13.346;2024-03-07T02:23:01;11.40;98.30
15844;DHT22;50807;52.436;13.346;2024-03-07T02:23:32;11.40;98.40
15844;DHT22;50807;52.436;13.346;2024-03-07T02:24:05;11.40;98.40
15844;DHT22;50807;52.436;13.346;2024-03-07T02:24:35;11.40;98.40
15844;DHT22;50807;52.436;13.346;2024-03-07T02:25:07;11.40;98.40
15844;DHT22;50807;52.436;13.346;2024-03-07T02:25:40;11.40;98.50
15844;DHT22;50807;52.436;13.346;2024-03-07T02:26:12;11.40;98.50
15844;DHT22;50807;52.436;13.346;2024-03-07T02:26:42;11.40;98.50
15844;DHT22;50807;52.436;13.346;2024-03-07T02:27:14;11.40;98.50
15844;DHT22;50807;52.436;13.346;2024-03-07T02:27:44;11.40;98.50
15844;DHT22;50807;52.436;13.346;2024-03-07T02:28:16;11.30;98.40
15844;DHT22;50807;52.436;13.346;2024-03-07T02:28:47;11.30;98.40
15844;DHT22;50807;52.436;13.346;2024-03-07T02:29:18;11.30;98.40
15844;DHT22;50807;52.436;13.346;2024-03-07T02:29:49;11.30;98.40
15844;DHT22;50807;52.436;13.346;2024-03-07T02:30:21;11.30;98.40
15844;DHT22;50807;52.436;13.346;2024-03-07T02:30:52;11.30;98.40
15844;DHT22;50807;52.436;13.346;2024-03-07T02:31:23;11.30;98.40
15844;DHT22;50807;52.436;13.346;2024-03-07T02:32:05;11.30;98.40
15844;DHT22;50807;52.436;13.346;2024-03-07T02:32:36;11.30;98.40
15844;DHT22;50807;52.436;13.346;2024-03-07T02:33:07;11.30;98.40
15844;DHT22;50807;52.436;13.346;2024-03-07T02:33:39;11.30;98.40
15844;DHT22;50807;52.436;13.346;2024-03-07T02:34:12;11.30;98.40
15844;DHT22;50807;52.436;13.346;2024-03-07T02:34:42;11.30;98.40
15844;DHT22;50807;52.436;13.346;2024-03-07T02:35:14;11.30;98.40
15844;DHT22;50807;52.436;13.346;2024-03-07T02:35:46;11.30;98.40
15844;DHT22;50807;52.436;13.346;2024-03-07T02:36:20;11.20;98.40
15844;DHT22;50807;52.436;13.346;2024-03-07T02:36:51;11.20;98.40
15844;DHT22;50807;52.436;13.346;2024-03-07T02:37:22;11.20;98.40
15844;DHT22;50807;52.436;13.346;2024-03-07T02:37:53;11.20;98.40
15844;DHT22;50807;52.436;13.346;2024-03-07T02:38:24;11.20;98.50
15844;DHT22;50807;52.436;13.346;2024-03-07T02:38:55;11.20;98.50
15844;DHT22;50807;52.436;13.346;2024-03-07T02:39:26;11.10;98.50
15844;DHT22;50807;52.436;13.346;2024-03-07T02:39:57;11.10;98.50
15844;DHT22;50807;52.436;13.346;2024-03-07T02:40:29;11.10;98.60
15844;DHT22;50807;52.436;13.346;2024-03-07T02:41:00;11.10;98.60
15844;DHT22;50807;52.436;13.346;2024-03-07T02:41:31;11.10;98.70
15844;DHT22;50807;52.436;13.346;2024-03-07T02:42:04;11.10;98.70
15844;DHT22;50807;52.436;13.346;2024-03-07T02:42:35;11.10;98.70
15844;DHT22;50807;52.436;13.346;2024-03-07T02:43:06;11.00;98.70
15844;DHT22;50807;52.436;13.346;2024-03-07T02:43:37;11.00;98.80
15844;DHT22;50807;52.436;13.346;2024-03-07T02:44:09;11.00;98.90
15844;DHT22;50807;52.436;13.346;2024-03-07T02:44:39;11.00;98.90
15844;DHT22;50807;52.436;13.346;2024-03-07T02:45:11;11.00;99.00
15844;DHT22;50807;52.436;13.346;2024-03-07T02:45:44;11.00;99.00
15844;DHT22;50807;52.436;13.346;2024-03-07T02:46:16;11.00;99.10
15844;DHT22;50807;52.436;13.346;2024-03-07T02:46:47;11.00;99.10
15844;DHT22;50807;52.436;13.346;2024-03-07T02:47:18;11.00;99.10
15844;DHT22;50807;52.436;13.346;2024-03-07T02:47:49;11.00;99.20
15844;DHT22;50807;52.436;13.346;2024-03-07T02:48:20;11.00;99.20
15844;DHT22;50807;52.436;13.346;2024-03-07T02:48:51;11.00;99.30
15844;DHT22;50807;52.436;13.346;2024-03-07T02:49:22;10.90;99.30
15844;DHT22;50807;52.436;13.346;2024-03-07T02:49:52;10.90;99.40
15844;DHT22;50807;52.436;13.346;2024-03-07T02:50:24;10.90;99.40
15844;DHT22;50807;52.436;13.346;2024-03-07T02:50:55;10.90;99.50
15844;DHT22;50807;52.436;13.346;2024-03-07T02:51:27;10.90;99.50
15844;DHT22;50807;52.436;13.346;2024-03-07T02:51:57;10.90;99.60
15844;DHT22;50807;52.436;13.346;2024-03-07T02:52:29;10.90;99.70
15844;DHT22;50807;52.436;13.346;2024-03-07T02:53:00;10.90;99.70
15844;DHT22;50807;52.436;13.346;2024-03-07T02:53:30;10.90;99.70
15844;DHT22;50807;52.436;13.346;2024-03-07T02:54:01;10.90;99.80
15844;DHT22;50807;52.436;13.346;2024-03-07T02:54:35;10.90;99.90
15844;DHT22;50807;52.436;13.346;2024-03-07T02:55:07;10.90;99.90
15844;DHT22;50807;52.436;13.346;2024-03-07T02:55:40;10.90;99.90
15844;DHT22;50807;52.436;13.346;2024-03-07T02:56:12;10.90;99.90
15844;DHT22;50807;52.436;13.346;2024-03-07T02:56:43;10.90;99.90
15844;DHT22;50807;52.436;13.346;2024-03-07T02:57:14;10.90;99.90
15844;DHT22;50807;52.436;13.346;2024-03-07T02:57:45;10.90;99.90
15844;DHT22;50807;52.436;13.346;2024-03-07T02:58:15;10.80;99.90
15844;DHT22;50807;52.436;13.346;2024-03-07T02:58:47;10.80;99.90
15844;DHT22;50807;52.436;13.346;2024-03-07T02:59:18;10.80;99.90
15844;DHT22;50807;52.436;13.346;2024-03-07T02:59:48;10.80;99.90
15844;DHT22;50807;52.436;13.346;2024-03-07T03:00:19;10.80;99.90
15844;DHT22;50807;52.436;13.346;2024-03-07T03:00:57;10.80;99.90
15844;DHT22;50807;52.436;13.346;2024-03-07T03:01:30;10.80;99.90
15844;DHT22;50807;52.436;13.346;2024-03-07T03:02:00;10.80;99.90
15844;DHT22;50807;52.436;13.346;2024-03-07T03:02:31;10.80;99.90
15844;DHT22;50807;52.436;13.346;2024-03-07T03:03:02;10.80;99.90
15844;DHT22;50807;52.436;13.346;2024-03-07T03:03:34;10.80;99.90
15844;DHT22;50807;52.436;13.346;2024-03-07T03:04:05;10.90;99.90
15844;DHT22;50807;52.436;13.346;2024-03-07T03:04:35;10.80;99.90
15844;DHT22;50807;52.436;13.346;2024-03-07T03:05:07;10.80;99.90
15844;DHT22;50807;52.436;13.346;2024-03-07T03:05:38;10.80;99.90
15844;DHT22;50807;52.436;13.346;2024-03-07T03:06:10;10.80;99.90
15844;DHT22;50807;52.436;13.346;2024-03-07T03:06:42;10.80;99.90
15844;DHT22;50807;52.436;13.346;2024-03-07T03:07:13;10.80;99.90
15844;DHT22;50807;52.436;13.346;2024-03-07T03:07:44;10.80;99.90
15844;DHT22;50807;52.436;13.346;2024-03-07T03:08:22;10.80;99.90
15844;DHT22;50807;52.436;13.346;2024-03-07T03:08:55;10.80;99.90
15844;DHT22;50807;52.436;13.346;2024-03-07T03:09:26;10.80;99.90
15844;DHT22;50807;52.436;13.346;2024-03-07T03:09:58;10.80;99.90
15844;DHT22;50807;52.436;13.346;2024-03-07T03:10:29;10.80;99.90
15844;DHT22;50807;52.436;13.346;2024-03-07T03:11:01;10.80;99.90
15844;DHT22;50807;52.436;13.346;2024-03-07T03:11:32;10.80;99.90
15844;DHT22;50807;52.436;13.346;2024-03-07T03:12:02;10.80;99.90
15844;DHT22;50807;52.436;13.346;2024-03-07T03:12:34;10.80;99.90
15844;DHT22;50807;52.436;13.346;2024-03-07T03:13:07;10.80;99.90
15844;DHT22;50807;52.436;13.346;2024-03-07T03:13:38;10.80;99.90
15844;DHT22;50807;52.436;13.346;2024-03-07T03:14:09;10.80;99.90
15844;DHT22;50807;52.436;13.346;2024-03-07T03:14:41;10.80;99.90
15844;DHT22;50807;52.436;13.346;2024-03-07T03:15:13;10.80;99.90
15844;DHT22;50807;52.436;13.346;2024-03-07T03:15:45;10.80;99.90